createdAt,value
2017-03-14T00:00:13.241Z,1018.43
2017-03-14T00:01:26.687Z,1018.43
2017-03-14T00:02:40.119Z,1018.44
2017-03-14T00:03:53.612Z,1018.45
2017-03-14T00:05:07.104Z,1018.4
2017-03-14T00:06:21.812Z,1018.37
2017-03-14T00:07:35.656Z,1018.46
2017-03-14T00:08:49.144Z,1018.4
2017-03-14T00:10:03.072Z,1018.39
2017-03-14T00:11:17.458Z,1018.42
2017-03-14T00:12:31.549Z,1018.38
2017-03-14T00:13:45.049Z,1018.43
2017-03-14T00:14:58.754Z,1018.44
2017-03-14T00:16:12.680Z,1018.46
2017-03-14T00:17:27.367Z,1018.53
2017-03-14T00:18:41.793Z,1018.51
2017-03-14T00:19:56.239Z,1018.54
2017-03-14T00:21:09.728Z,1018.6
2017-03-14T00:22:23.493Z,1018.6
2017-03-14T00:23:37.049Z,1018.65
2017-03-14T00:24:50.595Z,1018.69
2017-03-14T00:26:04.111Z,1018.66
2017-03-14T00:27:17.634Z,1018.66
2017-03-14T00:28:31.412Z,1018.64
2017-03-14T00:29:45.764Z,1018.67
2017-03-14T00:30:59.713Z,1018.65
2017-03-14T00:32:13.154Z,1018.68
2017-03-14T00:33:27.057Z,1018.67
2017-03-14T00:34:41.398Z,1018.69
2017-03-14T00:35:55.281Z,1018.7
2017-03-14T00:37:08.835Z,1018.67
2017-03-14T00:38:22.359Z,1018.69
2017-03-14T00:39:35.821Z,1018.73
2017-03-14T00:40:49.825Z,1018.73
2017-03-14T00:42:03.290Z,1018.71
2017-03-14T00:43:17.175Z,1018.71
2017-03-14T00:44:31.460Z,1018.73
2017-03-14T00:45:44.990Z,1018.75
2017-03-14T00:46:58.526Z,1018.73
2017-03-14T00:48:12.445Z,1018.71
2017-03-14T00:49:26.334Z,1018.68
2017-03-14T00:50:39.998Z,1018.7
2017-03-14T00:51:53.502Z,1018.63
2017-03-14T00:53:07.286Z,1018.6
2017-03-14T00:54:21.158Z,1018.6
2017-03-14T00:55:40.693Z,1018.56
2017-03-14T00:56:55.063Z,1018.57
2017-03-14T00:58:08.929Z,1018.52
2017-03-14T00:59:22.714Z,1018.59
2017-03-14T01:00:36.114Z,1018.56
2017-03-14T01:01:49.576Z,1018.65
2017-03-14T01:03:03.044Z,1018.59
2017-03-14T01:04:16.563Z,1018.58
2017-03-14T01:05:30.716Z,1018.59
2017-03-14T01:06:44.537Z,1018.6
2017-03-14T01:07:58.091Z,1018.61
2017-03-14T01:09:11.935Z,1018.58
2017-03-14T01:10:25.494Z,1018.64
2017-03-14T01:11:39.003Z,1018.62
2017-03-14T01:12:53.063Z,1018.58
2017-03-14T01:14:06.459Z,1018.59
2017-03-14T01:15:20.303Z,1018.6
2017-03-14T01:16:34.178Z,1018.61
2017-03-14T01:17:47.716Z,1018.59
2017-03-14T01:19:01.581Z,1018.56
2017-03-14T01:20:15.396Z,1018.58
2017-03-14T01:21:29.268Z,1018.54
2017-03-14T01:22:42.771Z,1018.54
2017-03-14T01:23:56.244Z,1018.53
2017-03-14T01:25:10.068Z,1018.55
2017-03-14T01:26:23.567Z,1018.56
2017-03-14T01:27:37.038Z,1018.53
2017-03-14T01:28:50.897Z,1018.54
2017-03-14T01:30:04.309Z,1018.56
2017-03-14T01:31:17.753Z,1018.56
2017-03-14T01:32:31.598Z,1018.53
2017-03-14T01:33:45.933Z,1018.51
2017-03-14T01:34:59.400Z,1018.51
2017-03-14T01:36:13.229Z,1018.44
2017-03-14T01:37:27.098Z,1018.52
2017-03-14T01:38:40.608Z,1018.51
2017-03-14T01:39:54.075Z,1018.52
2017-03-14T01:41:07.484Z,1018.55
2017-03-14T01:42:21.374Z,1018.54
2017-03-14T01:43:35.249Z,1018.52
2017-03-14T01:44:50.149Z,1018.57
2017-03-14T01:46:03.540Z,1018.58
2017-03-14T01:47:16.966Z,1018.58
2017-03-14T01:48:30.717Z,1018.59
2017-03-14T01:49:44.792Z,1018.6
2017-03-14T01:50:58.294Z,1018.66
2017-03-14T01:52:11.773Z,1018.68
2017-03-14T01:53:25.653Z,1018.68
2017-03-14T01:54:39.381Z,1018.66
2017-03-14T01:55:53.555Z,1018.65
2017-03-14T01:57:07.068Z,1018.63
2017-03-14T01:58:20.882Z,1018.6
2017-03-14T01:59:34.348Z,1018.63
2017-03-14T02:00:48.379Z,1018.63
2017-03-14T02:02:01.822Z,1018.66
2017-03-14T02:03:15.713Z,1018.64
2017-03-14T02:04:29.876Z,1018.64
2017-03-14T02:05:50.810Z,1018.59
2017-03-14T02:07:10.924Z,1018.6
2017-03-14T02:08:31.252Z,1018.63
2017-03-14T02:09:52.025Z,1018.67
2017-03-14T02:11:13.319Z,1018.66
2017-03-14T02:12:38.064Z,1018.58
2017-03-14T02:13:56.134Z,1018.6
2017-03-14T02:15:15.292Z,1018.62
2017-03-14T02:16:28.753Z,1018.6
2017-03-14T02:17:55.247Z,1018.57
2017-03-14T02:19:09.486Z,1018.55
2017-03-14T02:20:22.978Z,1018.56
2017-03-14T02:21:36.825Z,1018.58
2017-03-14T02:22:50.327Z,1018.53
2017-03-14T02:24:03.812Z,1018.56
2017-03-14T02:25:17.229Z,1018.51
2017-03-14T02:26:31.115Z,1018.5
2017-03-14T02:27:44.570Z,1018.61
2017-03-14T02:28:57.978Z,1018.59
2017-03-14T02:30:11.764Z,1018.57
2017-03-14T02:31:25.271Z,1018.6
2017-03-14T02:32:38.663Z,1018.61
2017-03-14T02:33:52.064Z,1018.61
2017-03-14T02:35:05.545Z,1018.64
2017-03-14T02:36:19.481Z,1018.66
2017-03-14T02:37:32.914Z,1018.64
2017-03-14T02:38:46.402Z,1018.69
2017-03-14T02:39:59.818Z,1018.69
2017-03-14T02:41:13.290Z,1018.71
2017-03-14T02:42:26.736Z,1018.74
2017-03-14T02:43:40.748Z,1018.78
2017-03-14T02:44:54.158Z,1018.73
2017-03-14T02:46:08.018Z,1018.75
2017-03-14T02:47:21.470Z,1018.8
2017-03-14T02:48:35.772Z,1018.78
2017-03-14T02:49:49.263Z,1018.77
2017-03-14T02:51:02.666Z,1018.78
2017-03-14T02:52:16.163Z,1018.78
2017-03-14T02:53:29.631Z,1018.74
2017-03-14T02:54:43.064Z,1018.8
2017-03-14T02:55:56.567Z,1018.83
2017-03-14T02:57:10.021Z,1018.8
2017-03-14T02:58:23.879Z,1018.84
2017-03-14T02:59:38.106Z,1018.85
2017-03-14T03:00:51.956Z,1018.88
2017-03-14T03:02:05.449Z,1018.94
2017-03-14T03:03:18.951Z,1018.91
2017-03-14T03:04:32.351Z,1018.95
2017-03-14T03:05:45.789Z,1018.91
2017-03-14T03:06:59.329Z,1018.94
2017-03-14T03:08:12.853Z,1018.92
2017-03-14T03:09:27.028Z,1018.97
2017-03-14T03:10:41.483Z,1018.93
2017-03-14T03:11:55.319Z,1019
2017-03-14T03:13:08.737Z,1018.96
2017-03-14T03:14:22.224Z,1018.97
2017-03-14T03:15:35.792Z,1019
2017-03-14T03:16:49.201Z,1019.03
2017-03-14T03:18:02.590Z,1019.07
2017-03-14T03:19:16.604Z,1019.05
2017-03-14T03:20:30.028Z,1019.07
2017-03-14T03:21:44.339Z,1019.04
2017-03-14T03:22:57.944Z,1019.03
2017-03-14T03:24:12.130Z,1019.02
2017-03-14T03:25:25.502Z,1019.05
2017-03-14T03:26:39.752Z,1019.12
2017-03-14T03:27:53.619Z,1019.13
2017-03-14T03:29:09.960Z,1019.14
2017-03-14T03:30:23.504Z,1019.14
2017-03-14T03:31:37.399Z,1019.15
2017-03-14T03:32:50.865Z,1019.15
2017-03-14T03:34:04.706Z,1019.16
2017-03-14T03:35:18.192Z,1019.13
2017-03-14T03:36:31.657Z,1019.17
2017-03-14T03:37:45.069Z,1019.14
2017-03-14T03:38:58.498Z,1019.17
2017-03-14T03:40:12.005Z,1019.17
2017-03-14T03:41:25.884Z,1019.17
2017-03-14T03:42:39.522Z,1019.16
2017-03-14T03:43:52.976Z,1019.15
2017-03-14T03:45:06.460Z,1019.15
2017-03-14T03:46:20.412Z,1019.12
2017-03-14T03:47:34.678Z,1019.13
2017-03-14T03:48:48.493Z,1019.11
2017-03-14T03:50:01.976Z,1019.11
2017-03-14T03:51:15.496Z,1019.09
2017-03-14T03:52:28.944Z,1019.1
2017-03-14T03:53:42.354Z,1019.19
2017-03-14T03:54:56.478Z,1019.14
2017-03-14T03:56:09.979Z,1019.2
2017-03-14T03:57:23.837Z,1019.25
2017-03-14T03:58:37.329Z,1019.28
2017-03-14T03:59:50.773Z,1019.27
2017-03-14T04:01:04.504Z,1019.29
2017-03-14T04:02:18.140Z,1019.22
2017-03-14T04:03:31.665Z,1019.22
2017-03-14T04:04:45.594Z,1019.21
2017-03-14T04:05:59.003Z,1019.24
2017-03-14T04:07:12.793Z,1019.21
2017-03-14T04:08:26.236Z,1019.23
2017-03-14T04:09:39.746Z,1019.23
2017-03-14T04:10:53.158Z,1019.21
2017-03-14T04:12:07.125Z,1019.21
2017-03-14T04:13:20.531Z,1019.23
2017-03-14T04:14:33.998Z,1019.24
2017-03-14T04:15:47.550Z,1019.22
2017-03-14T04:17:01.002Z,1019.26
2017-03-14T04:18:14.785Z,1019.24
2017-03-14T04:19:28.709Z,1019.23
2017-03-14T04:20:42.574Z,1019.27
2017-03-14T04:21:56.090Z,1019.25
2017-03-14T04:23:09.553Z,1019.25
2017-03-14T04:24:23.076Z,1019.27
2017-03-14T04:25:36.799Z,1019.23
2017-03-14T04:26:50.333Z,1019.22
2017-03-14T04:28:03.808Z,1019.22
2017-03-14T04:29:17.398Z,1019.24
2017-03-14T04:30:30.856Z,1019.2
2017-03-14T04:31:44.289Z,1019.18
2017-03-14T04:32:58.125Z,1019.21
2017-03-14T04:34:11.606Z,1019.26
2017-03-14T04:35:25.524Z,1019.32
2017-03-14T04:36:38.992Z,1019.34
2017-03-14T04:37:52.432Z,1019.35
2017-03-14T04:40:51.713Z,1019.41
2017-03-14T04:42:05.569Z,1019.45
2017-03-14T04:43:19.132Z,1019.49
2017-03-14T04:44:32.611Z,1019.5
2017-03-14T04:45:48.290Z,1019.54
2017-03-14T04:47:01.701Z,1019.54
2017-03-14T04:48:15.178Z,1019.54
2017-03-14T04:49:29.122Z,1019.57
2017-03-14T04:50:42.612Z,1019.6
2017-03-14T04:51:56.075Z,1019.58
2017-03-14T04:53:09.624Z,1019.52
2017-03-14T04:54:23.201Z,1019.54
2017-03-14T04:55:36.662Z,1019.5
2017-03-14T04:56:50.089Z,1019.48
2017-03-14T04:58:03.498Z,1019.51
2017-03-14T04:59:17.144Z,1019.47
2017-03-14T05:00:30.613Z,1019.49
2017-03-14T05:01:44.131Z,1019.52
2017-03-14T05:02:57.962Z,1019.52
2017-03-14T05:04:11.782Z,1019.51
2017-03-14T05:05:25.750Z,1019.58
2017-03-14T05:06:39.301Z,1019.58
2017-03-14T05:07:53.137Z,1019.52
2017-03-14T05:09:06.872Z,1019.58
2017-03-14T05:10:20.394Z,1019.56
2017-03-14T05:11:33.852Z,1019.53
2017-03-14T05:12:47.281Z,1019.51
2017-03-14T05:14:01.044Z,1019.48
2017-03-14T05:16:43.201Z,1019.48
2017-03-14T05:17:56.647Z,1019.51
2017-03-14T05:19:10.118Z,1019.5
2017-03-14T05:20:23.686Z,1019.53
2017-03-14T05:21:38.126Z,1019.53
2017-03-14T05:22:56.083Z,1019.52
2017-03-14T05:24:09.973Z,1019.56
2017-03-14T05:25:23.616Z,1019.59
2017-03-14T05:26:37.939Z,1019.67
2017-03-14T05:27:51.473Z,1019.65
2017-03-14T05:29:05.827Z,1019.65
2017-03-14T05:30:19.289Z,1019.57
2017-03-14T05:31:33.205Z,1019.59
2017-03-14T05:32:46.680Z,1019.63
2017-03-14T05:34:00.226Z,1019.68
2017-03-14T05:35:13.727Z,1019.71
2017-03-14T05:36:27.199Z,1019.75
2017-03-14T05:37:41.125Z,1019.77
2017-03-14T05:38:54.549Z,1019.8
2017-03-14T05:40:08.401Z,1019.81
2017-03-14T05:41:21.859Z,1019.84
2017-03-14T05:42:35.792Z,1019.84
2017-03-14T05:43:49.862Z,1019.91
2017-03-14T05:45:03.333Z,1019.97
2017-03-14T05:46:17.221Z,1019.99
2017-03-14T05:47:30.700Z,1020.06
2017-03-14T05:48:44.608Z,1020.07
2017-03-14T05:49:58.157Z,1020.07
2017-03-14T05:51:11.624Z,1020.11
2017-03-14T05:52:25.124Z,1020.14
2017-03-14T05:53:39.002Z,1020.13
2017-03-14T05:54:52.531Z,1020.16
2017-03-14T05:56:06.142Z,1020.17
2017-03-14T05:57:19.642Z,1020.18
2017-03-14T05:58:33.530Z,1020.15
2017-03-14T05:59:46.955Z,1020.18
2017-03-14T06:01:00.875Z,1020.12
2017-03-14T06:02:16.579Z,1020.17
2017-03-14T06:03:30.693Z,1020.17
2017-03-14T06:04:44.204Z,1020.15
2017-03-14T06:05:57.720Z,1020.18
2017-03-14T06:07:11.172Z,1020.17
2017-03-14T06:08:25.142Z,1020.2
2017-03-14T06:09:39.048Z,1020.13
2017-03-14T06:10:53.659Z,1020.11
2017-03-14T06:12:07.129Z,1020.19
2017-03-14T06:13:20.606Z,1020.2
2017-03-14T06:14:34.566Z,1020.24
2017-03-14T06:15:48.926Z,1020.3
2017-03-14T06:17:02.335Z,1020.31
2017-03-14T06:18:16.264Z,1020.38
2017-03-14T06:19:30.620Z,1020.38
2017-03-14T06:20:44.116Z,1020.41
2017-03-14T06:21:57.678Z,1020.42
2017-03-14T06:23:11.129Z,1020.38
2017-03-14T06:24:24.575Z,1020.36
2017-03-14T06:25:38.135Z,1020.36
2017-03-14T06:26:52.078Z,1020.32
2017-03-14T06:28:06.956Z,1020.32
2017-03-14T06:29:20.490Z,1020.28
2017-03-14T06:30:33.987Z,1020.32
2017-03-14T06:31:47.563Z,1020.38
2017-03-14T06:33:01.379Z,1020.44
2017-03-14T06:34:15.291Z,1020.49
2017-03-14T06:35:29.775Z,1020.53
2017-03-14T06:36:44.187Z,1020.53
2017-03-14T06:37:57.803Z,1020.48
2017-03-14T06:39:11.388Z,1020.55
2017-03-14T06:40:25.570Z,1020.55
2017-03-14T06:41:39.242Z,1020.52
2017-03-14T06:42:52.753Z,1020.48
2017-03-14T06:44:06.278Z,1020.47
2017-03-14T06:45:20.256Z,1020.43
2017-03-14T06:46:34.692Z,1020.48
2017-03-14T06:47:48.226Z,1020.46
2017-03-14T06:49:02.151Z,1020.49
2017-03-14T06:50:15.795Z,1020.54
2017-03-14T06:51:30.229Z,1020.51
2017-03-14T06:52:43.920Z,1020.5
2017-03-14T06:53:58.065Z,1020.52
2017-03-14T06:55:11.592Z,1020.5
2017-03-14T06:56:25.078Z,1020.52
2017-03-14T06:57:39.038Z,1020.51
2017-03-14T06:58:53.417Z,1020.56
2017-03-14T07:00:07.359Z,1020.54
2017-03-14T07:01:20.870Z,1020.51
2017-03-14T07:02:34.710Z,1020.55
2017-03-14T07:03:48.491Z,1020.52
2017-03-14T07:05:02.324Z,1020.57
2017-03-14T07:06:15.914Z,1020.59
2017-03-14T07:07:29.445Z,1020.63
2017-03-14T07:08:44.164Z,1020.72
2017-03-14T07:09:58.142Z,1020.73
2017-03-14T07:11:11.725Z,1020.76
2017-03-14T07:12:25.515Z,1020.76
2017-03-14T07:13:39.612Z,1020.71
2017-03-14T07:14:53.131Z,1020.69
2017-03-14T07:16:06.648Z,1020.72
2017-03-14T07:17:20.247Z,1020.75
2017-03-14T07:18:36.159Z,1020.82
2017-03-14T07:19:50.182Z,1020.88
2017-03-14T07:21:03.673Z,1020.93
2017-03-14T07:22:17.498Z,1020.91
2017-03-14T07:23:30.980Z,1020.88
2017-03-14T07:24:44.543Z,1020.85
2017-03-14T07:25:58.475Z,1020.84
2017-03-14T07:27:12.094Z,1020.91
2017-03-14T07:28:26.373Z,1020.9
2017-03-14T07:29:39.933Z,1020.97
2017-03-14T07:30:53.507Z,1021
2017-03-14T07:32:07.428Z,1020.98
2017-03-14T07:33:21.632Z,1021
2017-03-14T07:34:35.566Z,1020.97
2017-03-14T07:35:49.092Z,1021.02
2017-03-14T07:37:03.026Z,1020.98
2017-03-14T07:38:16.447Z,1020.95
2017-03-14T07:39:30.321Z,1020.97
2017-03-14T07:40:44.541Z,1020.96
2017-03-14T07:41:58.085Z,1020.94
2017-03-14T07:45:29.981Z,1020.94
2017-03-14T07:46:43.771Z,1020.98
2017-03-14T07:47:57.691Z,1020.99
2017-03-14T07:49:11.180Z,1020.99
2017-03-14T07:50:24.788Z,1021.01
2017-03-14T07:51:38.294Z,1020.99
2017-03-14T07:52:55.121Z,1021
2017-03-14T07:54:08.637Z,1020.99
2017-03-14T07:55:22.945Z,1020.99
2017-03-14T07:56:36.563Z,1021.03
2017-03-14T07:57:50.537Z,1021.01
2017-03-14T07:59:05.672Z,1021.09
2017-03-14T08:00:19.185Z,1021
2017-03-14T08:01:32.692Z,1021.02
2017-03-14T08:02:46.190Z,1021.07
2017-03-14T08:03:59.688Z,1021.07
2017-03-14T08:05:13.241Z,1021.08
2017-03-14T08:06:26.851Z,1021.07
2017-03-14T08:07:40.442Z,1021.08
2017-03-14T08:08:53.949Z,1021.09
2017-03-14T08:10:07.445Z,1021.1
2017-03-14T08:11:20.975Z,1021.05
2017-03-14T08:12:34.490Z,1021.07
2017-03-14T08:13:48.173Z,1021.08
2017-03-14T08:15:01.621Z,1021.08
2017-03-14T08:16:15.220Z,1021.05
2017-03-14T08:17:28.797Z,1021.07
2017-03-14T08:18:42.409Z,1021.09
2017-03-14T08:19:57.133Z,1021.05
2017-03-14T08:21:10.596Z,1021.05
2017-03-14T08:22:24.029Z,1021.04
2017-03-14T08:23:38.239Z,1021.06
2017-03-14T08:24:52.257Z,1021.03
2017-03-14T08:26:05.762Z,1020.98
2017-03-14T08:27:19.276Z,1020.93
2017-03-14T08:28:32.780Z,1020.91
2017-03-14T08:29:46.367Z,1020.92
2017-03-14T08:31:00.833Z,1020.91
2017-03-14T08:32:14.801Z,1020.89
2017-03-14T08:33:28.438Z,1020.9
2017-03-14T08:34:42.462Z,1020.89
2017-03-14T08:35:58.471Z,1020.87
2017-03-14T08:37:11.979Z,1020.91
2017-03-14T08:38:26.185Z,1020.87
2017-03-14T08:39:40.152Z,1020.86
2017-03-14T08:40:53.794Z,1020.88
2017-03-14T08:42:07.573Z,1020.91
2017-03-14T08:43:22.182Z,1020.91
2017-03-14T08:44:36.004Z,1020.89
2017-03-14T08:45:49.567Z,1020.89
2017-03-14T08:47:03.157Z,1020.89
2017-03-14T08:48:17.145Z,1020.91
2017-03-14T08:49:30.737Z,1020.92
2017-03-14T08:50:44.243Z,1020.95
2017-03-14T08:51:58.303Z,1020.92
2017-03-14T08:53:11.778Z,1020.92
2017-03-14T08:54:25.679Z,1020.92
2017-03-14T08:55:40.406Z,1020.89
2017-03-14T08:56:53.957Z,1020.89
2017-03-14T08:58:07.884Z,1020.87
2017-03-14T08:59:21.369Z,1020.81
2017-03-14T09:00:35.161Z,1020.85
2017-03-14T09:01:48.694Z,1020.8
2017-03-14T09:03:02.665Z,1020.79
2017-03-14T09:04:16.838Z,1020.78
2017-03-14T09:05:30.924Z,1020.78
2017-03-14T09:06:44.841Z,1020.77
2017-03-14T09:07:59.238Z,1020.79
2017-03-14T09:09:12.805Z,1020.76
2017-03-14T09:11:40.071Z,1020.75
2017-03-14T09:12:53.527Z,1020.74
2017-03-14T09:14:07.439Z,1020.73
2017-03-14T09:15:21.030Z,1020.75
2017-03-14T09:16:34.696Z,1020.79
2017-03-14T09:17:48.724Z,1020.8
2017-03-14T09:19:02.630Z,1020.8
2017-03-14T09:20:16.512Z,1020.76
2017-03-14T09:21:30.518Z,1020.81
2017-03-14T09:22:44.405Z,1020.8
2017-03-14T09:23:57.964Z,1020.8
2017-03-14T09:25:11.554Z,1020.77
2017-03-14T09:27:42.622Z,1020.78
2017-03-14T09:28:56.266Z,1020.77
2017-03-14T09:30:09.785Z,1020.76
2017-03-14T09:31:24.365Z,1020.73
2017-03-14T09:32:37.953Z,1020.72
2017-03-14T09:33:51.534Z,1020.66
2017-03-14T09:35:11.548Z,1020.65
2017-03-14T09:36:25.068Z,1020.64
2017-03-14T09:37:39.209Z,1020.62
2017-03-14T09:38:52.673Z,1020.65
2017-03-14T09:40:07.000Z,1020.59
2017-03-14T09:41:20.607Z,1020.63
2017-03-14T09:42:34.271Z,1020.64
2017-03-14T09:43:49.034Z,1020.63
2017-03-14T09:45:02.642Z,1020.58
2017-03-14T09:46:16.286Z,1020.56
2017-03-14T09:47:29.837Z,1020.58
2017-03-14T09:48:43.324Z,1020.61
2017-03-14T09:49:57.079Z,1020.67
2017-03-14T09:51:11.089Z,1020.71
2017-03-14T09:52:25.485Z,1020.76
2017-03-14T09:53:41.398Z,1020.79
2017-03-14T09:54:55.053Z,1020.81
2017-03-14T09:56:09.083Z,1020.79
2017-03-14T09:57:22.974Z,1020.78
2017-03-14T09:58:36.920Z,1020.77
2017-03-14T09:59:50.567Z,1020.77
2017-03-14T10:01:04.590Z,1020.83
2017-03-14T10:02:18.906Z,1020.84
2017-03-14T10:03:32.487Z,1020.86
2017-03-14T10:04:46.030Z,1020.88
2017-03-14T10:05:59.625Z,1020.87
2017-03-14T10:07:13.723Z,1020.79
2017-03-14T10:08:27.550Z,1020.73
2017-03-14T10:09:41.710Z,1020.77
2017-03-14T10:10:56.136Z,1020.77
2017-03-14T10:12:09.714Z,1020.75
2017-03-14T10:13:23.824Z,1020.74
2017-03-14T10:14:37.667Z,1020.71
2017-03-14T10:15:51.201Z,1020.64
2017-03-14T10:17:05.250Z,1020.57
2017-03-14T10:18:19.459Z,1020.62
2017-03-14T10:19:33.499Z,1020.59
2017-03-14T10:20:47.283Z,1020.6
2017-03-14T10:22:01.331Z,1020.59
2017-03-14T10:23:14.851Z,1020.56
2017-03-14T10:24:28.692Z,1020.5
2017-03-14T10:25:42.591Z,1020.5
2017-03-14T10:26:56.705Z,1020.48
2017-03-14T10:28:11.032Z,1020.52
2017-03-14T10:29:24.590Z,1020.51
2017-03-14T10:30:38.543Z,1020.54
2017-03-14T10:31:52.596Z,1020.54
2017-03-14T10:33:06.507Z,1020.5
2017-03-14T10:34:20.327Z,1020.5
2017-03-14T10:35:34.127Z,1020.5
2017-03-14T10:36:48.320Z,1020.52
2017-03-14T10:38:02.423Z,1020.54
2017-03-14T10:39:16.305Z,1020.53
2017-03-14T10:40:30.032Z,1020.52
2017-03-14T10:41:43.542Z,1020.52
2017-03-14T10:42:57.012Z,1020.52
2017-03-14T10:44:10.544Z,1020.5
2017-03-14T10:45:24.413Z,1020.5
2017-03-14T10:46:37.921Z,1020.51
2017-03-14T10:47:51.438Z,1020.53
2017-03-14T10:49:05.488Z,1020.53
2017-03-14T10:50:19.190Z,1020.5
2017-03-14T10:51:33.480Z,1020.48
2017-03-14T10:52:46.986Z,1020.48
2017-03-14T10:54:00.474Z,1020.46
2017-03-14T10:55:14.608Z,1020.52
2017-03-14T10:56:28.439Z,1020.51
2017-03-14T10:57:42.282Z,1020.5
2017-03-14T10:58:55.937Z,1020.43
2017-03-14T11:00:09.788Z,1020.42
2017-03-14T11:01:23.317Z,1020.4
2017-03-14T11:02:36.815Z,1020.43
2017-03-14T11:03:50.738Z,1020.41
2017-03-14T11:05:04.636Z,1020.42
2017-03-14T11:06:18.257Z,1020.37
2017-03-14T11:07:31.845Z,1020.43
2017-03-14T11:08:47.741Z,1020.38
2017-03-14T11:10:03.821Z,1020.37
2017-03-14T11:11:17.367Z,1020.34
2017-03-14T11:12:31.258Z,1020.33
2017-03-14T11:13:46.437Z,1020.4
2017-03-14T11:15:10.293Z,1020.35
2017-03-14T11:16:27.990Z,1020.29
2017-03-14T11:17:42.300Z,1020.3
2017-03-14T11:18:56.627Z,1020.27
2017-03-14T11:20:12.452Z,1020.26
2017-03-14T11:21:29.797Z,1020.29
2017-03-14T11:22:53.800Z,1020.25
2017-03-14T11:24:08.208Z,1020.23
2017-03-14T11:25:23.662Z,1020.2
2017-03-14T11:26:38.335Z,1020.23
2017-03-14T11:27:52.460Z,1020.16
2017-03-14T11:29:08.995Z,1020.16
2017-03-14T11:30:22.682Z,1020.15
2017-03-14T11:31:36.907Z,1020.14
2017-03-14T11:32:50.780Z,1020.13
2017-03-14T11:34:04.299Z,1020.07
2017-03-14T11:35:18.149Z,1020.1
2017-03-14T11:36:32.427Z,1020.04
2017-03-14T11:37:48.885Z,1019.99
2017-03-14T11:39:08.112Z,1019.99
2017-03-14T11:40:24.222Z,1019.94
2017-03-14T11:41:40.996Z,1019.92
2017-03-14T11:42:54.477Z,1019.9
2017-03-14T11:44:08.004Z,1019.9
2017-03-14T11:45:21.578Z,1019.88
2017-03-14T11:46:35.488Z,1019.91
2017-03-14T11:47:49.024Z,1019.87
2017-03-14T11:49:02.509Z,1019.86
2017-03-14T11:50:16.467Z,1019.81
2017-03-14T11:51:31.582Z,1019.84
2017-03-14T11:52:45.891Z,1019.81
2017-03-14T11:53:59.397Z,1019.79
2017-03-14T11:55:13.207Z,1019.87
2017-03-14T11:56:26.825Z,1019.84
2017-03-14T11:57:40.289Z,1019.85
2017-03-14T11:58:54.504Z,1019.89
2017-03-14T12:00:09.159Z,1019.84
2017-03-14T12:01:22.912Z,1019.86
2017-03-14T12:02:36.534Z,1019.78
2017-03-14T12:03:50.407Z,1019.76
2017-03-14T12:05:03.877Z,1019.8
2017-03-14T12:06:17.444Z,1019.8
2017-03-14T12:07:31.440Z,1019.79
2017-03-14T12:08:45.008Z,1019.78
2017-03-14T12:09:59.128Z,1019.75
2017-03-14T12:11:13.164Z,1019.74
2017-03-14T12:12:26.690Z,1019.73
2017-03-14T12:13:40.202Z,1019.68
2017-03-14T12:14:53.691Z,1019.7
2017-03-14T12:16:07.601Z,1019.68
2017-03-14T12:17:21.912Z,1019.69
2017-03-14T12:18:35.860Z,1019.7
2017-03-14T12:19:49.816Z,1019.65
2017-03-14T12:21:03.358Z,1019.63
2017-03-14T12:22:17.040Z,1019.61
2017-03-14T12:23:30.765Z,1019.64
2017-03-14T12:24:44.746Z,1019.66
2017-03-14T12:25:58.220Z,1019.59
2017-03-14T12:27:13.881Z,1019.62
2017-03-14T12:28:27.725Z,1019.56
2017-03-14T12:29:41.223Z,1019.55
2017-03-14T12:30:54.739Z,1019.49
2017-03-14T12:32:08.224Z,1019.47
2017-03-14T12:33:22.440Z,1019.49
2017-03-14T12:34:35.945Z,1019.5
2017-03-14T12:35:49.368Z,1019.49
2017-03-14T12:37:03.775Z,1019.51
2017-03-14T12:38:17.652Z,1019.49
2017-03-14T12:39:31.345Z,1019.46
2017-03-14T12:40:45.354Z,1019.44
2017-03-14T12:41:59.659Z,1019.43
2017-03-14T12:43:13.336Z,1019.4
2017-03-14T12:46:24.149Z,1019.36
2017-03-14T12:47:38.011Z,1019.4
2017-03-14T12:48:51.865Z,1019.44
2017-03-14T12:50:05.828Z,1019.4
2017-03-14T12:51:19.373Z,1019.37
2017-03-14T12:52:33.120Z,1019.4
2017-03-14T12:53:47.022Z,1019.35
2017-03-14T12:55:01.014Z,1019.38
2017-03-14T12:56:14.500Z,1019.32
2017-03-14T12:57:28.058Z,1019.32
2017-03-14T12:58:42.266Z,1019.33
2017-03-14T12:59:55.816Z,1019.21
2017-03-14T13:01:09.629Z,1019.24
2017-03-14T13:02:23.588Z,1019.18
2017-03-14T13:03:37.458Z,1019.18
2017-03-14T13:06:20.405Z,1019.16
2017-03-14T13:07:34.376Z,1019.16
2017-03-14T13:08:47.911Z,1019.15
2017-03-14T13:10:01.492Z,1019.15
2017-03-14T13:11:15.455Z,1019.16
2017-03-14T13:12:29.290Z,1019.14
2017-03-14T13:13:42.837Z,1019.06
2017-03-14T13:14:56.342Z,1019.11
2017-03-14T13:16:10.617Z,1019.06
2017-03-14T13:17:24.515Z,1019.05
2017-03-14T13:18:38.021Z,1019.03
2017-03-14T13:19:52.192Z,1018.99
2017-03-14T13:21:06.175Z,1018.98
2017-03-14T13:22:19.666Z,1018.94
2017-03-14T13:23:33.433Z,1018.93
2017-03-14T13:24:47.273Z,1018.9
2017-03-14T13:26:00.736Z,1018.89
2017-03-14T13:27:15.185Z,1018.79
2017-03-14T13:28:28.698Z,1018.83
2017-03-14T13:29:42.534Z,1018.76
2017-03-14T13:30:56.209Z,1018.74
2017-03-14T13:32:10.624Z,1018.75
2017-03-14T13:33:24.177Z,1018.68
2017-03-14T13:34:37.735Z,1018.71
2017-03-14T13:35:51.266Z,1018.68
2017-03-14T13:38:33.763Z,1018.69
2017-03-14T13:39:47.596Z,1018.67
2017-03-14T13:41:01.458Z,1018.65
2017-03-14T13:42:15.524Z,1018.64
2017-03-14T13:43:29.890Z,1018.65
2017-03-14T13:44:46.262Z,1018.67
2017-03-14T13:46:00.021Z,1018.63
2017-03-14T13:47:14.018Z,1018.66
2017-03-14T13:48:28.057Z,1018.6
2017-03-14T13:49:42.772Z,1018.56
2017-03-14T13:50:56.753Z,1018.58
2017-03-14T13:52:10.869Z,1018.51
2017-03-14T13:53:24.950Z,1018.57
2017-03-14T13:54:38.947Z,1018.52
2017-03-14T13:55:52.586Z,1018.53
2017-03-14T13:57:07.350Z,1018.5
2017-03-14T13:58:21.113Z,1018.49
2017-03-14T13:59:34.731Z,1018.43
2017-03-14T14:00:48.924Z,1018.44
2017-03-14T14:02:03.387Z,1018.46
2017-03-14T14:03:16.945Z,1018.45
2017-03-14T14:04:30.556Z,1018.48
2017-03-14T14:05:44.431Z,1018.47
2017-03-14T14:06:58.939Z,1018.54
2017-03-14T14:08:19.523Z,1018.49
2017-03-14T14:09:34.407Z,1018.45
2017-03-14T14:10:48.049Z,1018.48
2017-03-14T14:12:01.647Z,1018.46
2017-03-14T14:13:15.372Z,1018.42
2017-03-14T14:14:29.557Z,1018.48
2017-03-14T14:15:43.608Z,1018.48
2017-03-14T14:16:57.111Z,1018.55
2017-03-14T14:18:10.653Z,1018.52
2017-03-14T14:19:24.149Z,1018.54
2017-03-14T14:20:37.566Z,1018.5
2017-03-14T14:21:51.426Z,1018.56
2017-03-14T14:23:05.681Z,1018.55
2017-03-14T14:24:19.330Z,1018.58
2017-03-14T14:25:32.882Z,1018.6
2017-03-14T14:26:46.385Z,1018.62
2017-03-14T14:28:00.200Z,1018.57
2017-03-14T14:29:14.355Z,1018.56
2017-03-14T14:30:27.962Z,1018.61
2017-03-14T14:31:41.412Z,1018.66
2017-03-14T14:32:54.916Z,1018.69
2017-03-14T14:34:08.430Z,1018.67
2017-03-14T14:35:21.931Z,1018.71
2017-03-14T14:36:35.722Z,1018.74
2017-03-14T14:37:49.667Z,1018.73
2017-03-14T14:39:03.514Z,1018.78
2017-03-14T14:40:17.055Z,1018.76
2017-03-14T14:41:31.360Z,1018.76
2017-03-14T14:42:44.989Z,1018.73
2017-03-14T14:43:58.713Z,1018.74
2017-03-14T14:45:15.219Z,1018.77
2017-03-14T14:46:32.382Z,1018.82
2017-03-14T14:47:46.735Z,1018.77
2017-03-14T14:49:00.163Z,1018.78
2017-03-14T14:50:13.570Z,1018.74
2017-03-14T14:51:27.079Z,1018.76
2017-03-14T14:52:40.519Z,1018.72
2017-03-14T14:53:54.222Z,1018.73
2017-03-14T14:55:08.864Z,1018.68
2017-03-14T14:56:22.357Z,1018.69
2017-03-14T14:57:35.842Z,1018.71
2017-03-14T14:58:55.895Z,1018.68
2017-03-14T15:00:09.510Z,1018.69
2017-03-14T15:01:25.628Z,1018.66
2017-03-14T15:02:39.794Z,1018.67
2017-03-14T15:03:53.330Z,1018.66
2017-03-14T15:05:06.985Z,1018.62
2017-03-14T15:06:20.645Z,1018.66
2017-03-14T15:07:34.860Z,1018.63
2017-03-14T15:08:48.396Z,1018.61
2017-03-14T15:10:02.311Z,1018.53
2017-03-14T15:11:16.031Z,1018.52